Time;durP1;ratioP1;P1;durP2;ratioP2;P2;SDS_P1;SDS_P2;PMS_P1;PMS_P2;Temp;Humidity;BMP_temperature;BMP_pressure;BME280_temperature;BME280_humidity;BME280_pressure;Samples;Min_cycle;Max_cycle;Signal;HPM_P1;HPM_P2
2022/09/11 00:01:46;;;;;;;;;;;;;;;12.90;56.74;96347.47;10331439;28;97111;-59
2022/09/11 00:06:49;;;;;;;;;;;;;;;12.86;56.52;96342.53;10331352;28;96752;-58
2022/09/11 00:11:53;;;;;;;;;;;;;;;12.74;57.24;96330.69;10373533;28;100446;-58
2022/09/11 00:16:56;;;;;;;;;;;;;;;12.53;57.98;96340.75;10411372;28;96724;-58
2022/09/11 00:21:58;;;;;;;;;;;;;;;12.46;58.08;96336.16;10420513;27;96848;-58
2022/09/11 00:27:02;;;;;;;;;;;;;;;12.35;57.94;96331.19;10419972;28;97337;-58
2022/09/11 00:32:05;;;;;;;;;;;;;;;12.28;57.96;96345.88;10420560;28;96781;-58
2022/09/11 00:37:08;;;;;;;;;;;;;;;12.25;58.19;96339.16;10420243;27;97172;-58
2022/09/11 00:42:12;;;;;;;;;;;;;;;12.22;57.92;96342.09;10401727;28;96754;-58
2022/09/11 00:47:16;;;;;;;;;;;;;;;12.13;57.78;96335.19;10377995;28;96707;-59
2022/09/11 00:52:20;;;;;;;;;;;;;;;11.85;58.55;96340.56;10378331;28;97050;-58
2022/09/11 00:57:26;;;;;;;;;;;;;;;11.68;59.09;96334.38;10378188;28;97233;-58
2022/09/11 01:02:30;;;;;;;;;;;;;;;11.60;59.38;96341.34;10378538;28;96770;-59
2022/09/11 01:07:34;;;;;;;;;;;;;;;11.54;59.74;96332.31;10377852;28;96686;-59
2022/09/11 01:12:44;;;;;;;;;;;;;;;11.57;59.60;96332.00;10356219;28;97675;-58
2022/09/11 01:17:52;;;;;;;;;;;;;;;11.53;59.85;96330.66;10334920;28;97026;-58
2022/09/11 01:23:13;;;;;;;;;;;;;;;11.50;59.76;96336.19;10361418;28;96910;-58
2022/09/11 01:28:20;;;;;;;;;;;;;;;11.47;59.91;96332.09;10377340;28;96656;-59
2022/09/11 01:33:27;;;;;;;;;;;;;;;11.42;60.06;96320.44;10377287;28;97467;-58
2022/09/11 01:38:33;;;;;;;;;;;;;;;11.25;60.32;96320.25;10376886;28;96788;-58
2022/09/11 01:43:39;;;;;;;;;;;;;;;11.07;60.97;96320.25;10373577;28;96810;-60
2022/09/11 01:48:45;;;;;;;;;;;;;;;10.97;61.58;96328.16;10375651;28;97059;-58
2022/09/11 01:53:50;;;;;;;;;;;;;;;11.00;61.49;96324.44;10376985;28;97115;-58
2022/09/11 01:58:57;;;;;;;;;;;;;;;11.09;61.41;96327.97;10350143;28;96867;-58
2022/09/11 02:04:03;;;;;;;;;;;;;;;11.07;61.43;96320.25;10334559;28;96944;-58
2022/09/11 02:09:08;;;;;;;;;;;;;;;10.98;61.75;96321.13;10342886;28;96785;-58
2022/09/11 02:14:15;;;;;;;;;;;;;;;10.93;61.78;96326.84;10341525;28;96784;-58
2022/09/11 02:19:19;;;;;;;;;;;;;;;10.80;62.37;96323.75;10334110;28;96763;-58
2022/09/11 02:24:22;;;;;;;;;;;;;;;10.67;62.57;96315.41;10334556;28;96861;-58
2022/09/11 02:29:26;;;;;;;;;;;;;;;10.69;62.20;96327.38;10333467;28;97140;-58
2022/09/11 02:34:32;;;;;;;;;;;;;;;10.72;62.58;96315.81;10333960;28;97295;-59
2022/09/11 02:39:52;;;;;;;;;;;;;;;10.65;62.28;96320.78;10333938;28;96634;-58
2022/09/11 02:45:03;;;;;;;;;;;;;;;10.59;62.70;96322.19;10374781;28;96648;-58
2022/09/11 02:50:10;;;;;;;;;;;;;;;10.57;62.67;96320.72;10374828;28;97213;-58
2022/09/11 02:55:16;;;;;;;;;;;;;;;10.52;62.90;96315.91;10374220;28;96734;-60
2022/09/11 03:00:20;;;;;;;;;;;;;;;10.54;62.92;96318.38;10373342;28;96841;-59
2022/09/11 03:05:23;;;;;;;;;;;;;;;10.53;62.80;96314.97;10374272;28;97218;-58
2022/09/11 03:10:26;;;;;;;;;;;;;;;10.47;62.76;96317.31;10370086;28;97602;-58
2022/09/11 03:15:30;;;;;;;;;;;;;;;10.38;63.21;96313.78;10380068;28;96890;-58
2022/09/11 03:20:33;;;;;;;;;;;;;;;10.27;63.35;96316.56;10373335;28;96654;-59
2022/09/11 03:25:35;;;;;;;;;;;;;;;10.21;63.20;96313.56;10374118;28;96848;-58
2022/09/11 03:30:40;;;;;;;;;;;;;;;10.20;63.50;96317.16;10373425;28;96745;-59
2022/09/11 03:35:43;;;;;;;;;;;;;;;10.22;63.58;96310.00;10373882;28;96714;-58
2022/09/11 03:40:45;;;;;;;;;;;;;;;10.24;63.28;96308.06;10368151;28;96864;-58
2022/09/11 03:45:50;;;;;;;;;;;;;;;10.10;63.67;96299.91;10369941;28;96847;-58
2022/09/11 03:50:53;;;;;;;;;;;;;;;9.83;64.41;96299.69;10379085;28;96613;-58
2022/09/11 03:55:55;;;;;;;;;;;;;;;9.69;64.54;96297.53;10380014;28;96679;-58
2022/09/11 04:00:59;;;;;;;;;;;;;;;9.62;65.33;96299.06;10380008;28;96674;-58
2022/09/11 04:06:02;;;;;;;;;;;;;;;9.58;65.65;96308.94;10342664;28;96881;-58
2022/09/11 04:11:05;;;;;;;;;;;;;;;9.55;65.51;96309.22;10363390;28;97129;-58
2022/09/11 04:16:11;;;;;;;;;;;;;;;9.59;65.75;96310.63;10379639;28;96758;-58
2022/09/11 04:21:15;;;;;;;;;;;;;;;9.64;65.22;96308.38;10379385;28;96730;-59
2022/09/11 04:26:18;;;;;;;;;;;;;;;9.67;65.55;96315.13;10379526;28;97274;-59
2022/09/11 04:31:22;;;;;;;;;;;;;;;9.64;64.96;96316.19;10379205;28;96982;-59
2022/09/11 04:36:25;;;;;;;;;;;;;;;9.65;65.11;96317.06;10339294;28;96908;-58
2022/09/11 04:41:28;;;;;;;;;;;;;;;9.58;65.27;96313.34;10347301;28;97037;-58
2022/09/11 04:46:33;;;;;;;;;;;;;;;9.54;65.40;96309.38;10378676;28;96818;-58
2022/09/11 04:51:37;;;;;;;;;;;;;;;9.43;65.66;96313.75;10378665;28;96632;-58
2022/09/11 04:56:39;;;;;;;;;;;;;;;9.30;65.65;96303.59;10377499;28;98034;-59
2022/09/11 05:01:44;;;;;;;;;;;;;;;9.30;65.54;96310.59;10377465;28;96808;-59
2022/09/11 05:06:47;;;;;;;;;;;;;;;9.27;65.50;96308.28;10377429;28;96820;-59
2022/09/11 05:11:50;;;;;;;;;;;;;;;9.23;65.89;96317.34;10377170;28;96738;-58
2022/09/11 05:16:54;;;;;;;;;;;;;;;9.28;65.64;96315.09;10378522;28;96683;-58
2022/09/11 05:21:57;;;;;;;;;;;;;;;9.31;65.81;96317.44;10377468;28;96613;-58
2022/09/11 05:27:00;;;;;;;;;;;;;;;9.27;65.98;96327.34;10377118;28;96762;-59
2022/09/11 05:32:04;;;;;;;;;;;;;;;9.28;66.14;96336.81;10370020;28;96876;-59
2022/09/11 05:37:07;;;;;;;;;;;;;;;9.23;66.74;96332.97;10335474;28;96709;-58
2022/09/11 05:42:09;;;;;;;;;;;;;;;9.25;66.21;96333.66;10354771;28;96697;-58
2022/09/11 05:47:14;;;;;;;;;;;;;;;9.36;66.28;96333.50;10376779;28;96765;-58
2022/09/11 05:52:16;;;;;;;;;;;;;;;9.44;65.93;96338.88;10376288;28;96714;-58
2022/09/11 05:57:19;;;;;;;;;;;;;;;9.62;66.00;96348.63;10376083;28;96923;-59
2022/09/11 06:02:23;;;;;;;;;;;;;;;9.79;65.48;96350.50;10367782;28;97365;-58
2022/09/11 06:07:26;;;;;;;;;;;;;;;9.89;65.76;96366.16;10335002;28;97057;-58
2022/09/11 06:12:28;;;;;;;;;;;;;;;10.03;65.72;96364.91;10379773;28;96939;-58
2022/09/11 06:17:32;;;;;;;;;;;;;;;10.19;65.89;96366.91;10375460;28;96782;-58
2022/09/11 06:22:36;;;;;;;;;;;;;;;10.37;66.31;96356.53;10375049;28;96842;-58
2022/09/11 06:27:39;;;;;;;;;;;;;;;10.54;66.09;96366.22;10386585;28;96768;-59
2022/09/11 06:32:42;;;;;;;;;;;;;;;10.67;65.70;96367.66;10374428;28;96864;-58
2022/09/11 06:37:45;;;;;;;;;;;;;;;10.76;65.85;96358.97;10374906;28;97235;-58
2022/09/11 06:42:48;;;;;;;;;;;;;;;10.90;65.64;96366.31;10374467;28;96762;-58
2022/09/11 06:47:52;;;;;;;;;;;;;;;11.15;65.44;96361.34;10374696;28;96756;-58
2022/09/11 06:52:55;;;;;;;;;;;;;;;11.45;65.28;96367.22;10374406;28;96711;-58
2022/09/11 06:57:57;;;;;;;;;;;;;;;11.69;64.63;96361.38;10334311;28;96742;-59
2022/09/11 07:03:01;;;;;;;;;;;;;;;11.86;64.80;96362.31;10333187;28;96881;-58
2022/09/11 07:08:04;;;;;;;;;;;;;;;11.99;64.00;96351.44;10333385;28;97209;-58
2022/09/11 07:13:06;;;;;;;;;;;;;;;12.11;64.54;96364.13;10372675;28;97599;-58
2022/09/11 07:18:11;;;;;;;;;;;;;;;12.24;64.65;96358.47;10374580;28;96755;-58
2022/09/11 07:23:14;;;;;;;;;;;;;;;12.38;64.59;96358.88;10378810;28;96749;-59
2022/09/11 07:28:16;;;;;;;;;;;;;;;12.56;63.92;96353.53;10340350;28;96754;-59
2022/09/11 07:33:21;;;;;;;;;;;;;;;12.65;64.28;96358.69;10339576;28;96741;-62
2022/09/11 07:38:24;;;;;;;;;;;;;;;12.81;64.12;96349.22;10339538;28;96713;-59
2022/09/11 07:43:27;;;;;;;;;;;;;;;12.92;63.60;96361.25;10339321;28;96800;-58
2022/09/11 07:48:31;;;;;;;;;;;;;;;13.00;63.89;96354.22;10339568;28;96898;-58
2022/09/11 07:53:34;;;;;;;;;;;;;;;13.13;64.03;96356.38;10345237;28;96822;-59
2022/09/11 07:58:37;;;;;;;;;;;;;;;13.21;63.66;96352.97;10380344;28;96748;-58
2022/09/11 08:03:42;;;;;;;;;;;;;;;13.42;63.42;96355.94;10378732;28;96770;-58
2022/09/11 08:08:46;;;;;;;;;;;;;;;13.53;63.62;96362.66;10379796;28;98140;-58
2022/09/11 08:13:50;;;;;;;;;;;;;;;13.76;62.73;96370.72;10378334;28;97042;-59
2022/09/11 08:18:54;;;;;;;;;;;;;;;14.00;62.45;96369.06;10379180;28;96986;-58
2022/09/11 08:23:57;;;;;;;;;;;;;;;14.13;62.37;96369.38;10408194;28;96707;-58
2022/09/11 08:29:00;;;;;;;;;;;;;;;14.33;62.18;96361.16;10376485;28;97130;-58
2022/09/11 08:34:04;;;;;;;;;;;;;;;14.42;62.74;96361.94;10376291;28;96737;-58
2022/09/11 08:39:07;;;;;;;;;;;;;;;14.47;62.18;96354.38;10377381;28;96817;-58
2022/09/11 08:44:16;;;;;;;;;;;;;;;14.64;62.13;96360.41;10376279;28;97183;-59
2022/09/11 08:49:23;;;;;;;;;;;;;;;14.77;61.85;96358.06;10374305;28;96881;-58
2022/09/11 08:54:27;;;;;;;;;;;;;;;14.94;61.98;96371.97;10375025;28;97991;-58
2022/09/11 08:59:37;;;;;;;;;;;;;;;15.04;62.14;96372.56;10374200;28;96751;-58
2022/09/11 09:04:49;;;;;;;;;;;;;;;15.16;61.95;96359.03;10373974;28;96720;-60
2022/09/11 09:09:59;;;;;;;;;;;;;;;15.40;61.89;96356.22;10399605;28;96795;-58
2022/09/11 09:15:12;;;;;;;;;;;;;;;15.47;61.70;96351.91;10333591;28;1224969;-58
2022/09/11 09:20:19;;;;;;;;;;;;;;;15.60;61.58;96348.72;10378124;28;96771;-58
2022/09/11 09:25:23;;;;;;;;;;;;;;;15.78;61.67;96344.97;10388789;28;96880;-59
2022/09/11 09:30:28;;;;;;;;;;;;;;;15.93;61.08;96344.97;10405264;27;96831;-59
2022/09/11 09:35:38;;;;;;;;;;;;;;;16.19;60.89;96339.28;10371571;28;97076;-58
2022/09/11 09:40:43;;;;;;;;;;;;;;;16.30;60.61;96335.41;10417477;27;96881;-59
2022/09/11 09:45:55;;;;;;;;;;;;;;;16.43;60.98;96335.59;10408018;27;97160;-58
2022/09/11 09:51:02;;;;;;;;;;;;;;;16.59;60.14;96340.69;10371976;28;97202;-58
2022/09/11 09:56:06;;;;;;;;;;;;;;;16.80;59.98;96339.16;10380863;28;97208;-57
2022/09/11 10:01:32;;;;;;;;;;;;;;;16.99;59.82;96328.00;10375868;28;97276;-58
2022/09/11 10:06:35;;;;;;;;;;;;;;;17.11;59.10;96327.50;10371070;28;96820;-58
2022/09/11 10:11:39;;;;;;;;;;;;;;;17.13;59.58;96320.25;10375194;28;97240;-58
2022/09/11 10:16:47;;;;;;;;;;;;;;;17.15;59.55;96312.97;10375273;28;96844;-58
2022/09/11 10:21:51;;;;;;;;;;;;;;;17.35;59.26;96297.28;10398571;28;97032;-58
2022/09/11 10:26:54;;;;;;;;;;;;;;;17.36;59.40;96299.75;10374796;28;96660;-58
2022/09/11 10:32:01;;;;;;;;;;;;;;;17.46;59.06;96296.81;10374854;28;96778;-58
2022/09/11 10:37:07;;;;;;;;;;;;;;;17.65;58.31;96287.41;10374005;28;96736;-58
2022/09/11 10:42:15;;;;;;;;;;;;;;;17.84;57.97;96290.41;10402713;28;96772;-58
2022/09/11 10:47:22;;;;;;;;;;;;;;;17.91;57.85;96281.56;10415523;28;96794;-58
2022/09/11 10:52:26;;;;;;;;;;;;;;;18.08;57.67;96284.72;10373847;28;97502;-59
2022/09/11 10:57:32;;;;;;;;;;;;;;;18.22;56.63;96275.03;10371125;28;96902;-58
2022/09/11 11:02:35;;;;;;;;;;;;;;;18.47;55.80;96275.34;10374228;28;96745;-58
2022/09/11 11:07:48;;;;;;;;;;;;;;;18.60;56.34;96274.63;10373666;28;96643;-58
2022/09/11 11:12:57;;;;;;;;;;;;;;;18.75;55.52;96273.66;10372172;28;96915;-59
2022/09/11 11:18:12;;;;;;;;;;;;;;;18.82;56.02;96274.47;10373893;28;97232;-59
2022/09/11 11:23:25;;;;;;;;;;;;;;;19.05;55.97;96272.34;10372942;28;97487;-58
2022/09/11 11:28:36;;;;;;;;;;;;;;;19.20;55.41;96277.47;10372326;28;97531;-59
2022/09/11 11:33:56;;;;;;;;;;;;;;;19.27;55.67;96274.03;10373463;28;96701;-59
2022/09/11 11:39:01;;;;;;;;;;;;;;;19.27;55.50;96268.72;10373378;28;97071;-58
2022/09/11 11:44:06;;;;;;;;;;;;;;;19.36;55.71;96267.50;10372959;28;96718;-58
2022/09/11 11:49:12;;;;;;;;;;;;;;;19.22;55.20;96272.78;10403305;28;96820;-58
2022/09/11 11:54:19;;;;;;;;;;;;;;;19.39;54.33;96261.81;10394550;27;96892;-58
2022/09/11 11:59:30;;;;;;;;;;;;;;;19.69;53.95;96261.41;10373005;28;96818;-58
2022/09/11 12:04:40;;;;;;;;;;;;;;;19.88;53.79;96254.47;10374650;28;96624;-59
2022/09/11 12:09:48;;;;;;;;;;;;;;;19.84;53.84;96253.28;10406391;28;97427;-58
2022/09/11 12:14:52;;;;;;;;;;;;;;;20.06;53.62;96257.31;10379248;28;97179;-59
2022/09/11 12:20:14;;;;;;;;;;;;;;;20.22;53.68;96258.72;10397326;28;96700;-59
2022/09/11 12:25:36;;;;;;;;;;;;;;;20.29;53.08;96251.53;10392798;27;96887;-60
2022/09/11 12:30:58;;;;;;;;;;;;;;;20.52;52.81;96244.94;10389477;28;96844;-59
2022/09/11 12:36:05;;;;;;;;;;;;;;;20.75;52.74;96234.66;10409178;28;96869;-59
2022/09/11 12:41:12;;;;;;;;;;;;;;;20.87;52.51;96232.13;10405031;28;96811;-59
2022/09/11 12:46:34;;;;;;;;;;;;;;;21.01;52.32;96238.19;10412144;28;96769;-58
2022/09/11 12:51:41;;;;;;;;;;;;;;;21.19;51.99;96231.31;10352359;28;96821;-59
2022/09/11 12:56:46;;;;;;;;;;;;;;;21.31;51.82;96221.63;10337568;28;97262;-59
2022/09/11 13:01:48;;;;;;;;;;;;;;;21.16;52.00;96207.88;10402398;28;96901;-59
2022/09/11 13:06:55;;;;;;;;;;;;;;;21.41;51.41;96199.91;10395418;27;96717;-58
2022/09/11 13:12:17;;;;;;;;;;;;;;;21.24;51.48;96183.69;10367744;28;96782;-58
2022/09/11 13:17:25;;;;;;;;;;;;;;;21.60;51.07;96172.31;10376123;28;97095;-59
2022/09/11 13:22:30;;;;;;;;;;;;;;;21.94;50.15;96180.03;10401972;28;97273;-58
2022/09/11 13:27:35;;;;;;;;;;;;;;;21.98;49.31;96168.72;10377106;28;96753;-60
2022/09/11 13:32:37;;;;;;;;;;;;;;;22.18;48.88;96176.47;10377486;28;96788;-60
2022/09/11 13:37:44;;;;;;;;;;;;;;;22.33;48.54;96175.28;10364371;28;96782;-59
2022/09/11 13:42:48;;;;;;;;;;;;;;;22.32;48.32;96165.66;10353380;28;96964;-58
2022/09/11 13:47:53;;;;;;;;;;;;;;;22.54;47.76;96156.19;10418492;28;96783;-59
2022/09/11 13:52:57;;;;;;;;;;;;;;;22.92;47.21;96156.91;10417814;28;96654;-58
2022/09/11 13:58:01;;;;;;;;;;;;;;;23.13;46.46;96152.88;10373032;28;96787;-58
2022/09/11 14:03:05;;;;;;;;;;;;;;;23.16;46.89;96145.25;10333988;28;99043;-59
2022/09/11 14:08:18;;;;;;;;;;;;;;;22.83;47.86;96143.09;10335473;28;97330;-58
2022/09/11 14:13:31;;;;;;;;;;;;;;;22.65;47.16;96135.16;10375057;28;97183;-60
2022/09/11 14:18:35;;;;;;;;;;;;;;;23.09;46.30;96125.09;10409635;28;96671;-60
2022/09/11 14:23:44;;;;;;;;;;;;;;;23.48;45.90;96123.66;10401444;28;96740;-58
2022/09/11 14:28:49;;;;;;;;;;;;;;;23.66;45.68;96117.38;10341039;28;96970;-58
2022/09/11 14:34:02;;;;;;;;;;;;;;;23.57;45.10;96116.09;10346553;28;97231;-59
2022/09/11 14:39:06;;;;;;;;;;;;;;;24.29;44.43;96109.59;10373182;28;97314;-59
2022/09/11 14:44:12;;;;;;;;;;;;;;;24.31;44.14;96104.81;10374753;28;97226;-59
2022/09/11 14:49:14;;;;;;;;;;;;;;;24.42;44.08;96093.31;10359401;28;96748;-59
2022/09/11 14:54:20;;;;;;;;;;;;;;;24.36;43.96;96102.25;10332598;28;97300;-59
2022/09/11 14:59:23;;;;;;;;;;;;;;;25.03;42.80;96109.59;10332984;28;97805;-59
2022/09/11 15:04:26;;;;;;;;;;;;;;;24.91;42.76;96097.38;10332363;28;96668;-59
2022/09/11 15:09:30;;;;;;;;;;;;;;;24.90;42.82;96087.72;10344406;28;97664;-59
2022/09/11 15:14:32;;;;;;;;;;;;;;;25.09;42.88;96097.13;10401975;28;96923;-58
2022/09/11 15:19:55;;;;;;;;;;;;;;;25.04;42.93;96087.19;10391999;28;96761;-59
2022/09/11 15:25:00;;;;;;;;;;;;;;;25.66;41.55;96087.28;10372770;28;96750;-59
2022/09/11 15:30:03;;;;;;;;;;;;;;;25.57;41.77;96079.69;10379782;28;97177;-58
2022/09/11 15:35:06;;;;;;;;;;;;;;;25.80;41.27;96075.16;10379253;28;96747;-60
2022/09/11 15:40:11;;;;;;;;;;;;;;;26.17;40.90;96071.84;10361922;28;99092;-60
2022/09/11 15:45:13;;;;;;;;;;;;;;;26.26;40.51;96075.75;10354777;28;96972;-59
2022/09/11 15:50:23;;;;;;;;;;;;;;;26.49;40.31;96076.50;10341349;28;96827;-58
2022/09/11 15:55:29;;;;;;;;;;;;;;;26.55;40.33;96070.94;10362939;28;96948;-59
2022/09/11 16:00:34;;;;;;;;;;;;;;;26.25;40.79;96079.47;10376606;28;97816;-59
2022/09/11 16:05:39;;;;;;;;;;;;;;;25.93;40.68;96077.47;10368249;28;96994;-60
2022/09/11 16:10:43;;;;;;;;;;;;;;;25.89;40.51;96070.97;10363855;28;96798;-59
2022/09/11 16:15:47;;;;;;;;;;;;;;;26.02;40.25;96069.00;10376487;28;96839;-59
2022/09/11 16:20:55;;;;;;;;;;;;;;;25.99;40.68;96078.34;10372032;28;97559;-59
2022/09/11 16:26:01;;;;;;;;;;;;;;;26.05;39.95;96068.50;10349452;28;96883;-59
2022/09/11 16:31:05;;;;;;;;;;;;;;;25.97;39.41;96075.91;10365112;28;96884;-59
2022/09/11 16:36:08;;;;;;;;;;;;;;;26.07;39.40;96079.75;10371765;28;97840;-59
2022/09/11 16:41:20;;;;;;;;;;;;;;;26.50;39.01;96076.25;10350625;28;98637;-60
2022/09/11 16:46:24;;;;;;;;;;;;;;;26.69;39.15;96073.19;10376496;28;96802;-59
2022/09/11 16:51:27;;;;;;;;;;;;;;;26.94;39.23;96080.69;10362779;28;98969;-59
2022/09/11 16:56:30;;;;;;;;;;;;;;;26.81;39.34;96081.88;10371965;28;97020;-59
2022/09/11 17:01:34;;;;;;;;;;;;;;;26.16;40.30;96072.91;10335286;28;96810;-58
2022/09/11 17:06:37;;;;;;;;;;;;;;;24.90;41.31;96077.03;10336860;28;96866;-59
2022/09/11 17:11:43;;;;;;;;;;;;;;;23.73;42.77;96072.72;10361115;28;96838;-59
2022/09/11 17:16:46;;;;;;;;;;;;;;;22.50;43.95;96085.81;10352693;28;97568;-59
2022/09/11 17:21:49;;;;;;;;;;;;;;;21.93;44.46;96085.31;10385192;28;97433;-58
2022/09/11 17:26:53;;;;;;;;;;;;;;;21.45;44.45;96074.34;10387755;28;98724;-58
2022/09/11 17:31:56;;;;;;;;;;;;;;;21.06;44.75;96070.22;10373177;28;96660;-58
2022/09/11 17:37:19;;;;;;;;;;;;;;;20.62;45.17;96064.84;10375768;28;96777;-59
2022/09/11 17:42:23;;;;;;;;;;;;;;;20.29;45.48;96063.22;10355015;28;96942;-59
2022/09/11 17:47:25;;;;;;;;;;;;;;;19.97;45.65;96063.19;10386880;28;97625;-58
2022/09/11 17:52:28;;;;;;;;;;;;;;;19.72;46.14;96065.69;10367292;28;98700;-58
2022/09/11 17:57:32;;;;;;;;;;;;;;;19.46;45.88;96060.47;10370683;28;98410;-58
2022/09/11 18:02:35;;;;;;;;;;;;;;;19.06;46.66;96066.66;10363641;28;96820;-59
2022/09/11 18:07:37;;;;;;;;;;;;;;;18.78;47.59;96065.00;10348637;28;96902;-58
2022/09/11 18:12:41;;;;;;;;;;;;;;;18.50;48.39;96065.19;10373571;28;97444;-58
2022/09/11 18:17:46;;;;;;;;;;;;;;;18.24;48.27;96068.59;10380233;28;96995;-58
2022/09/11 18:22:49;;;;;;;;;;;;;;;18.05;49.30;96065.69;10399337;28;98033;-58
2022/09/11 18:27:53;;;;;;;;;;;;;;;17.89;49.10;96066.03;10397184;27;98994;-59
2022/09/11 18:32:56;;;;;;;;;;;;;;;17.72;49.02;96071.66;10374522;28;96757;-59
2022/09/11 18:37:59;;;;;;;;;;;;;;;17.60;49.11;96072.41;10367841;28;96626;-58
2022/09/11 18:43:07;;;;;;;;;;;;;;;17.47;49.40;96075.78;10383146;28;98525;-59
2022/09/11 18:48:10;;;;;;;;;;;;;;;17.35;49.53;96080.78;10371634;28;97597;-58
2022/09/11 18:53:13;;;;;;;;;;;;;;;17.20;50.27;96075.63;10408918;27;96739;-58
2022/09/11 18:58:17;;;;;;;;;;;;;;;17.10;50.10;96070.69;10374248;28;96667;-59
2022/09/11 19:03:21;;;;;;;;;;;;;;;17.10;50.41;96077.78;10370846;28;97360;-59
2022/09/11 19:08:23;;;;;;;;;;;;;;;17.13;49.71;96080.06;10411508;28;96933;-58
2022/09/11 19:13:27;;;;;;;;;;;;;;;17.09;50.28;96086.72;10374405;28;96853;-59
2022/09/11 19:18:30;;;;;;;;;;;;;;;16.98;49.86;96086.22;10381221;28;96967;-59
2022/09/11 19:23:33;;;;;;;;;;;;;;;16.81;50.63;96092.78;10347798;28;96836;-58
2022/09/11 19:28:39;;;;;;;;;;;;;;;16.62;51.16;96097.69;10339861;28;96666;-59
2022/09/11 19:33:43;;;;;;;;;;;;;;;16.42;51.22;96089.56;10339614;28;96760;-58
2022/09/11 19:38:46;;;;;;;;;;;;;;;16.24;51.49;96111.09;10381550;28;96779;-59
2022/09/11 19:43:50;;;;;;;;;;;;;;;16.08;52.17;96103.41;10360822;28;96774;-58
2022/09/11 19:48:55;;;;;;;;;;;;;;;15.98;52.21;96110.78;10380226;28;97209;-58
2022/09/11 19:53:59;;;;;;;;;;;;;;;15.91;52.46;96115.16;10379051;28;96953;-58
2022/09/11 19:59:03;;;;;;;;;;;;;;;15.83;52.56;96114.25;10378977;28;96805;-58
2022/09/11 20:04:06;;;;;;;;;;;;;;;15.55;53.06;96113.22;10379827;28;97115;-58
2022/09/11 20:09:09;;;;;;;;;;;;;;;15.33;53.47;96118.41;10383813;28;96819;-59
2022/09/11 20:14:33;;;;;;;;;;;;;;;15.22;53.40;96124.13;10353855;28;96944;-58
2022/09/11 20:19:39;;;;;;;;;;;;;;;15.15;53.63;96115.28;10338261;28;96639;-59
2022/09/11 20:24:42;;;;;;;;;;;;;;;15.15;53.58;96110.88;10355923;28;96900;-58
2022/09/11 20:29:46;;;;;;;;;;;;;;;15.13;53.67;96112.88;10365400;28;97175;-58
2022/09/11 20:34:48;;;;;;;;;;;;;;;15.10;53.99;96123.75;10377897;28;97702;-58
2022/09/11 20:39:51;;;;;;;;;;;;;;;15.08;53.93;96120.47;10377098;28;97792;-58
2022/09/11 20:44:55;;;;;;;;;;;;;;;14.88;54.59;96117.53;10374024;28;96765;-59
2022/09/11 20:49:57;;;;;;;;;;;;;;;14.60;55.04;96128.59;10398144;27;97117;-59
2022/09/11 20:55:02;;;;;;;;;;;;;;;14.32;56.19;96126.47;10420005;27;97038;-58
2022/09/11 21:00:07;;;;;;;;;;;;;;;14.08;56.10;96123.97;10407598;28;97283;-58
2022/09/11 21:05:09;;;;;;;;;;;;;;;13.90;57.58;96127.66;10347232;28;96781;-58
2022/09/11 21:10:12;;;;;;;;;;;;;;;13.84;57.94;96132.75;10365976;28;97079;-58
2022/09/11 21:15:16;;;;;;;;;;;;;;;13.82;57.61;96127.69;10351285;28;96917;-59
2022/09/11 21:20:18;;;;;;;;;;;;;;;13.79;57.79;96130.63;10362116;28;97446;-59
2022/09/11 21:25:21;;;;;;;;;;;;;;;13.72;57.82;96129.69;10391440;28;96882;-58
2022/09/11 21:30:25;;;;;;;;;;;;;;;13.70;57.81;96129.03;10368448;28;96810;-58
2022/09/11 21:35:28;;;;;;;;;;;;;;;13.67;57.96;96126.75;10366872;28;97038;-60
2022/09/11 21:40:31;;;;;;;;;;;;;;;13.58;57.39;96123.34;10354158;28;97113;-58
2022/09/11 21:45:35;;;;;;;;;;;;;;;13.51;58.18;96125.00;10390447;28;96766;-59
2022/09/11 21:50:38;;;;;;;;;;;;;;;13.47;57.76;96121.91;10411292;28;96972;-58
2022/09/11 21:55:41;;;;;;;;;;;;;;;13.39;58.06;96127.16;10350148;28;97446;-58
2022/09/11 22:00:46;;;;;;;;;;;;;;;13.39;58.72;96124.53;10335141;28;97609;-58
2022/09/11 22:05:50;;;;;;;;;;;;;;;13.33;58.59;96117.34;10400938;28;97253;-58
2022/09/11 22:10:52;;;;;;;;;;;;;;;13.11;58.56;96118.88;10381907;27;97164;-59
2022/09/11 22:15:56;;;;;;;;;;;;;;;13.04;58.62;96116.09;10335246;28;97000;-59
2022/09/11 22:21:00;;;;;;;;;;;;;;;12.95;59.12;96119.72;10334260;28;96713;-58
2022/09/11 22:26:04;;;;;;;;;;;;;;;12.87;58.86;96121.31;10334532;28;97311;-58
2022/09/11 22:31:08;;;;;;;;;;;;;;;12.80;59.62;96128.19;10370466;28;97281;-58
2022/09/11 22:36:12;;;;;;;;;;;;;;;12.78;59.57;96122.28;10374958;28;97116;-58
2022/09/11 22:41:15;;;;;;;;;;;;;;;12.71;59.76;96125.75;10375663;28;98624;-59
2022/09/11 22:46:19;;;;;;;;;;;;;;;12.67;60.07;96127.88;10371154;28;96826;-59
2022/09/11 22:51:22;;;;;;;;;;;;;;;12.63;59.90;96131.78;10349510;28;99104;-58
2022/09/11 22:56:25;;;;;;;;;;;;;;;12.57;59.78;96130.66;10340033;28;97085;-59
2022/09/11 23:01:29;;;;;;;;;;;;;;;12.54;59.86;96130.16;10360374;28;98048;-58
2022/09/11 23:11:51;;;;;;;;;;;;;;;12.44;60.10;96130.28;10376658;28;98663;-58
2022/09/11 23:16:55;;;;;;;;;;;;;;;12.34;60.10;96127.84;10391903;28;96818;-58
2022/09/11 23:21:58;;;;;;;;;;;;;;;12.28;60.63;96120.63;10389019;28;96794;-58
2022/09/11 23:27:00;;;;;;;;;;;;;;;12.29;60.51;96122.28;10396358;28;96697;-58
2022/09/11 23:32:04;;;;;;;;;;;;;;;12.19;60.21;96117.16;10415247;28;97140;-58
2022/09/11 23:37:07;;;;;;;;;;;;;;;12.03;60.09;96117.94;10415273;28;97429;-58
2022/09/11 23:42:10;;;;;;;;;;;;;;;11.98;60.78;96117.59;10415110;28;96932;-58
2022/09/11 23:47:13;;;;;;;;;;;;;;;12.04;60.26;96116.97;10414904;28;97414;-59
2022/09/11 23:52:16;;;;;;;;;;;;;;;11.91;60.91;96114.00;10387572;28;96808;-58
2022/09/11 23:57:19;;;;;;;;;;;;;;;11.91;60.80;96109.56;10374439;28;96573;-59
